Time;durP1;ratioP1;P1;durP2;ratioP2;P2;SDS_P1;SDS_P2;PMS_P1;PMS_P2;Temp;Humidity;BMP_temperature;BMP_pressure;BME280_temperature;BME280_humidity;BME280_pressure;Samples;Min_cycle;Max_cycle;Signal;HPM_P1;HPM_P2
2023/07/03 00:00:04;;;;;;;5.17;3.60;;;;;;;16.38;67.70;100526.03;5014783;28;20297;-75
2023/07/03 00:02:32;;;;;;;5.47;3.73;;;;;;;16.32;66.69;100581.63;5014322;28;20287;-75
2023/07/03 00:04:58;;;;;;;3.40;3.10;;;;;;;16.40;69.17;100529.47;5014400;28;20213;-74
2023/07/03 00:07:24;;;;;;;6.77;3.70;;;;;;;16.45;71.67;100424.72;5014151;28;20213;-75
2023/07/03 00:09:51;;;;;;;3.63;3.33;;;;;;;16.48;71.65;100379.81;5013986;28;20272;-75
2023/07/03 00:12:18;;;;;;;5.80;3.80;;;;;;;16.44;71.49;100380.88;5014141;28;20224;-74
2023/07/03 00:14:45;;;;;;;5.13;3.70;;;;;;;16.45;72.95;100329.88;5012828;28;20270;-75
2023/07/03 00:17:11;;;;;;;6.00;3.43;;;;;;;16.39;69.23;100391.63;5014011;28;20273;-75
2023/07/03 00:19:38;;;;;;;3.10;2.80;;;;;;;16.39;69.83;100425.00;5014157;28;20275;-75
2023/07/03 00:22:05;;;;;;;4.30;3.90;;;;;;;16.35;71.18;100397.06;5005367;28;20201;-75
2023/07/03 00:24:32;;;;;;;5.10;3.50;;;;;;;16.35;68.09;100453.28;5013655;28;20268;-75
2023/07/03 00:26:59;;;;;;;6.00;3.60;;;;;;;16.30;69.42;100449.13;5013846;28;20212;-74
2023/07/03 00:29:30;;;;;;;6.27;3.37;;;;;;;16.28;69.99;100428.09;5021201;28;20228;-75
2023/07/03 00:31:56;;;;;;;6.23;3.73;;;;;;;16.22;69.36;100436.28;5006108;28;20258;-75
2023/07/03 00:34:22;;;;;;;3.23;2.93;;;;;;;16.14;70.50;100415.53;5013723;28;20208;-75
2023/07/03 00:36:49;;;;;;;6.77;3.30;;;;;;;16.15;69.63;100411.94;5012919;28;20258;-74
2023/07/03 00:39:15;;;;;;;3.87;3.20;;;;;;;16.13;69.44;100437.50;5013382;28;20233;-75
2023/07/03 00:41:42;;;;;;;6.07;3.67;;;;;;;16.13;69.80;100400.63;5014877;28;20246;-75
2023/07/03 00:44:11;;;;;;;4.40;3.50;;;;;;;16.14;69.78;100422.56;5006325;28;20208;-74
2023/07/03 00:46:39;;;;;;;4.83;3.43;;;;;;;16.15;69.26;100433.03;4995268;28;20225;-74
2023/07/03 00:49:07;;;;;;;5.27;3.87;;;;;;;16.17;65.95;100507.56;5013440;28;20204;-75
2023/07/03 00:51:33;;;;;;;6.17;3.60;;;;;;;16.18;65.63;100572.50;5013106;28;20238;-75
2023/07/03 00:54:00;;;;;;;7.17;3.43;;;;;;;16.24;66.03;100550.31;5013542;28;20265;-75
2023/07/03 00:56:26;;;;;;;5.77;3.67;;;;;;;16.27;66.04;100569.50;5013235;28;20259;-74
2023/07/03 00:58:53;;;;;;;4.43;3.60;;;;;;;16.26;67.79;100537.94;5013032;28;20205;-74
2023/07/03 01:01:29;;;;;;;5.57;3.50;;;;;;;16.22;70.06;100442.38;5012539;28;20205;-75
2023/07/03 01:04:03;;;;;;;6.77;3.47;;;;;;;16.28;70.17;100415.78;5005091;28;20212;-74
2023/07/03 01:06:36;;;;;;;6.60;4.23;;;;;;;16.32;70.05;100386.69;5012921;28;20212;-74
2023/07/03 01:09:03;;;;;;;5.63;3.93;;;;;;;16.29;70.84;100371.84;5005061;28;20215;-74
2023/07/03 01:11:31;;;;;;;6.47;4.03;;;;;;;16.33;69.67;100398.94;5012123;28;20590;-74
2023/07/03 01:14:02;;;;;;;6.27;3.77;;;;;;;16.29;65.59;100514.09;5013041;28;20208;-75
2023/07/03 01:16:30;;;;;;;5.60;4.07;;;;;;;16.19;64.91;100566.28;5012584;28;20552;-75
2023/07/03 01:19:00;;;;;;;6.63;3.63;;;;;;;16.27;64.61;100616.03;5005344;28;20206;-74
2023/07/03 01:21:36;;;;;;;6.47;3.90;;;;;;;16.30;66.42;100571.16;5012800;28;20257;-74
2023/07/03 01:24:10;;;;;;;5.17;3.63;;;;;;;16.35;65.88;100573.59;5005820;28;20235;-75
2023/07/03 01:26:40;;;;;;;6.30;4.20;;;;;;;16.35;64.88;100605.19;5012508;28;20283;-75
2023/07/03 01:29:08;;;;;;;5.67;3.70;;;;;;;16.26;63.06;100616.97;5012770;28;20259;-75
2023/07/03 01:31:37;;;;;;;6.93;4.53;;;;;;;16.36;63.34;100657.84;5012280;28;20211;-75
2023/07/03 01:34:05;;;;;;;6.50;4.17;;;;;;;16.43;63.41;100653.16;5016009;28;20272;-75
2023/07/03 01:36:34;;;;;;;5.57;4.17;;;;;;;16.48;63.63;100652.06;4993574;28;20205;-74
2023/07/03 01:39:02;;;;;;;6.23;4.50;;;;;;;16.47;64.09;100653.00;5001688;28;20209;-74
2023/07/03 01:41:30;;;;;;;6.37;4.87;;;;;;;16.38;62.79;100649.88;5008899;28;20251;-74
2023/07/03 01:43:58;;;;;;;7.90;4.30;;;;;;;16.24;63.01;100660.94;5004807;28;20213;-75
2023/07/03 01:46:25;;;;;;;4.63;4.07;;;;;;;16.22;62.78;100657.53;5012331;28;20265;-75
2023/07/03 01:48:51;;;;;;;5.10;4.10;;;;;;;16.21;63.23;100651.41;5009515;28;20208;-74
2023/07/03 01:51:26;;;;;;;6.60;4.70;;;;;;;16.34;64.19;100621.94;5007343;28;20231;-74
2023/07/03 01:53:58;;;;;;;5.27;3.87;;;;;;;16.35;65.80;100569.19;5011796;28;20698;-75
2023/07/03 01:56:30;;;;;;;5.90;4.30;;;;;;;16.36;65.37;100541.06;5012038;28;20257;-75
2023/07/03 01:59:05;;;;;;;9.33;4.50;;;;;;;16.23;65.61;100543.31;5004603;28;20274;-75
2023/07/03 02:01:37;;;;;;;5.63;4.77;;;;;;;16.27;65.04;100547.53;5012071;28;20211;-75
2023/07/03 02:04:08;;;;;;;5.90;4.30;;;;;;;16.32;65.37;100544.75;5012247;28;20203;-75
2023/07/03 02:06:39;;;;;;;5.97;4.90;;;;;;;16.35;64.61;100563.03;5010090;28;20209;-74
2023/07/03 02:09:06;;;;;;;8.27;5.00;;;;;;;16.32;63.98;100579.84;5007197;28;20209;-74
2023/07/03 02:11:33;;;;;;;6.93;4.37;;;;;;;16.37;64.37;100584.91;4992967;28;20221;-74
2023/07/03 02:14:01;;;;;;;6.00;4.30;;;;;;;16.45;64.94;100574.91;5012319;28;20316;-74
2023/07/03 02:16:29;;;;;;;5.73;4.10;;;;;;;16.41;64.05;100586.50;5011762;28;20575;-74
2023/07/03 02:18:55;;;;;;;7.83;4.57;;;;;;;16.35;64.17;100582.38;5003727;28;20253;-73
2023/07/03 02:21:22;;;;;;;7.17;4.53;;;;;;;16.30;63.90;100591.38;5017928;28;20206;-74
2023/07/03 02:23:48;;;;;;;8.13;4.67;;;;;;;16.40;64.38;100595.34;5011109;28;20211;-75
2023/07/03 02:26:15;;;;;;;8.20;4.70;;;;;;;16.38;64.68;100571.69;5012077;28;20212;-75
2023/07/03 02:28:42;;;;;;;5.80;3.80;;;;;;;16.32;64.49;100568.47;5012094;28;20207;-74
2023/07/03 02:31:09;;;;;;;7.43;5.00;;;;;;;16.37;65.04;100561.19;5005048;28;20229;-75
2023/07/03 02:33:36;;;;;;;9.47;5.20;;;;;;;16.32;65.14;100555.28;5009103;28;20653;-74
2023/07/03 02:36:02;;;;;;;7.13;4.93;;;;;;;16.34;65.59;100535.00;5011795;28;20215;-74
2023/07/03 02:38:29;;;;;;;9.23;5.43;;;;;;;16.35;65.39;100518.25;5010300;28;20204;-75
2023/07/03 02:40:56;;;;;;;8.30;4.60;;;;;;;16.21;65.17;100509.19;5003890;28;20227;-74
2023/07/03 02:43:22;;;;;;;9.83;4.87;;;;;;;16.25;65.74;100517.78;5011629;28;20204;-75
2023/07/03 02:45:49;;;;;;;7.40;4.53;;;;;;;16.15;65.48;100514.66;5011815;28;20712;-75
2023/07/03 02:48:17;;;;;;;7.33;4.73;;;;;;;16.20;65.69;100511.88;5011384;28;20236;-75
2023/07/03 02:50:43;;;;;;;11.53;5.00;;;;;;;16.21;65.94;100509.19;5011652;28;20228;-74
2023/07/03 02:53:09;;;;;;;6.40;4.50;;;;;;;16.20;66.94;100490.78;5003431;28;20230;-75
2023/07/03 02:55:36;;;;;;;12.80;5.37;;;;;;;16.20;67.24;100452.13;5011591;28;20210;-75
2023/07/03 02:58:02;;;;;;;8.37;5.20;;;;;;;16.20;67.78;100438.97;5011249;28;20209;-75
2023/07/03 03:00:29;;;;;;;7.87;4.57;;;;;;;16.22;67.93;100431.00;5011308;28;20233;-75
2023/07/03 03:02:55;;;;;;;9.30;5.20;;;;;;;16.24;67.59;100422.09;5003070;28;20204;-74
2023/07/03 03:05:23;;;;;;;5.70;4.43;;;;;;;16.22;67.95;100413.41;5011454;28;20256;-74
2023/07/03 03:07:49;;;;;;;6.40;4.60;;;;;;;16.15;67.65;100419.00;5000557;28;20670;-74
2023/07/03 03:10:16;;;;;;;7.33;4.63;;;;;;;15.85;68.42;100408.84;4998086;28;20244;-75
2023/07/03 03:12:42;;;;;;;8.67;5.57;;;;;;;15.93;68.92;100382.19;5011148;28;20633;-74
2023/07/03 03:15:09;;;;;;;7.00;5.47;;;;;;;15.97;68.92;100381.16;5011094;28;20567;-75
2023/07/03 03:17:36;;;;;;;7.50;4.90;;;;;;;15.96;69.26;100358.38;5011334;28;20212;-74
2023/07/03 03:20:04;;;;;;;8.00;5.13;;;;;;;15.93;68.75;100367.25;5015959;28;20276;-75
2023/07/03 03:22:32;;;;;;;6.17;5.03;;;;;;;15.96;68.56;100374.19;4998607;28;20201;-75
2023/07/03 03:24:58;;;;;;;10.13;5.03;;;;;;;15.98;68.80;100380.25;5011367;28;20267;-75
2023/07/03 03:27:24;;;;;;;6.63;5.37;;;;;;;15.87;69.00;100381.53;5011177;28;20202;-75
2023/07/03 03:29:51;;;;;;;6.87;4.87;;;;;;;15.84;69.12;100386.09;5011397;28;20282;-75
2023/07/03 03:32:17;;;;;;;8.73;5.07;;;;;;;15.79;69.08;100367.84;5011021;28;20578;-75
2023/07/03 03:34:44;;;;;;;7.43;4.90;;;;;;;15.87;69.26;100365.72;5011347;28;20258;-75
2023/07/03 03:37:10;;;;;;;7.53;4.90;;;;;;;15.88;69.59;100349.03;5010950;28;20205;-72
2023/07/03 03:39:38;;;;;;;6.73;4.33;;;;;;;15.99;69.42;100350.34;5003029;28;20861;-75
2023/07/03 03:42:05;;;;;;;8.13;4.77;;;;;;;16.00;69.69;100338.91;5011054;28;20262;-74
2023/07/03 03:44:31;;;;;;;7.03;5.07;;;;;;;16.04;69.74;100349.22;5011077;28;20266;-74
2023/07/03 03:46:58;;;;;;;8.83;4.60;;;;;;;15.97;70.02;100346.91;5010994;28;20205;-73
2023/07/03 03:49:24;;;;;;;7.30;4.77;;;;;;;15.98;70.01;100333.69;5012081;28;20277;-74
2023/07/03 03:51:51;;;;;;;8.93;5.43;;;;;;;15.95;70.67;100320.66;5014661;28;20203;-74
2023/07/03 03:54:17;;;;;;;7.87;4.70;;;;;;;15.98;70.35;100320.53;5014127;28;20274;-74
2023/07/03 03:56:45;;;;;;;8.17;5.37;;;;;;;16.07;70.36;100327.16;5014580;28;20663;-74
2023/07/03 03:59:11;;;;;;;5.93;5.17;;;;;;;16.02;70.72;100322.13;5016019;28;20706;-74
2023/07/03 04:01:38;;;;;;;10.80;4.87;;;;;;;15.97;70.63;100316.19;5016461;28;20678;-74
2023/07/03 04:04:05;;;;;;;7.17;4.90;;;;;;;15.81;70.72;100315.13;5012498;28;20684;-74
2023/07/03 04:06:32;;;;;;;8.37;5.10;;;;;;;15.85;70.35;100314.94;5014028;28;20720;-74
2023/07/03 04:08:59;;;;;;;8.20;4.67;;;;;;;15.88;70.69;100321.84;5013876;28;20204;-74
2023/07/03 04:11:25;;;;;;;5.70;4.43;;;;;;;15.92;70.60;100320.81;5013790;28;20224;-75
2023/07/03 04:13:53;;;;;;;9.10;5.13;;;;;;;15.92;70.19;100326.06;5013931;28;20221;-74
2023/07/03 04:16:20;;;;;;;9.97;4.80;;;;;;;15.85;70.35;100346.50;5014096;28;20212;-74
2023/07/03 04:18:46;;;;;;;10.13;4.53;;;;;;;15.83;70.88;100329.09;5013965;28;20213;-74
2023/07/03 04:21:13;;;;;;;7.90;4.80;;;;;;;15.86;70.59;100329.81;5014399;28;20228;-74
2023/07/03 04:23:39;;;;;;;7.90;4.60;;;;;;;15.88;70.58;100335.03;5010547;28;20751;-75
2023/07/03 04:26:22;;;;;;;8.90;4.77;;;;;;;15.84;70.30;100343.97;5013709;28;20209;-75
2023/07/03 04:28:49;;;;;;;5.33;4.07;;;;;;;15.87;70.76;100336.78;5012760;28;20749;-74
2023/07/03 04:31:17;;;;;;;6.17;4.10;;;;;;;15.84;70.77;100346.59;5015999;28;20210;-75
2023/07/03 04:33:45;;;;;;;10.73;3.83;;;;;;;15.92;71.44;100330.50;5004076;28;20232;-75
2023/07/03 04:36:12;;;;;;;8.60;5.10;;;;;;;15.91;70.33;100334.88;5013689;28;20213;-74
2023/07/03 04:38:41;;;;;;;11.10;4.33;;;;;;;15.93;70.95;100333.03;5013189;28;20217;-74
2023/07/03 04:41:08;;;;;;;7.50;4.40;;;;;;;15.87;71.18;100326.25;5013906;28;20709;-72
2023/07/03 04:43:35;;;;;;;7.87;3.87;;;;;;;15.90;70.65;100327.91;5013367;28;20254;-75
2023/07/03 04:46:03;;;;;;;5.97;3.70;;;;;;;15.87;69.48;100354.34;5017799;28;20670;-75
2023/07/03 04:48:32;;;;;;;9.03;4.10;;;;;;;15.88;69.85;100375.34;5008533;28;20268;-74
2023/07/03 04:50:58;;;;;;;8.20;4.43;;;;;;;15.94;70.59;100370.75;5013333;28;20229;-75
2023/07/03 04:53:25;;;;;;;7.63;3.67;;;;;;;15.97;70.63;100365.34;5013441;28;20262;-74
2023/07/03 04:55:52;;;;;;;8.90;4.30;;;;;;;16.01;70.76;100357.25;5013406;28;20199;-75
2023/07/03 04:58:20;;;;;;;6.90;4.00;;;;;;;16.04;70.12;100354.50;5012961;28;20207;-75
2023/07/03 05:00:46;;;;;;;6.60;4.23;;;;;;;16.06;70.23;100368.44;5011292;28;20771;-74
2023/07/03 05:03:13;;;;;;;8.60;4.60;;;;;;;15.87;70.24;100363.09;5012790;28;20689;-74
2023/07/03 05:05:41;;;;;;;9.40;4.40;;;;;;;15.72;70.41;100366.38;5005105;28;20214;-74
2023/07/03 05:08:07;;;;;;;6.23;3.90;;;;;;;15.76;70.86;100359.22;5013048;28;20211;-74
2023/07/03 05:10:34;;;;;;;9.30;3.63;;;;;;;15.80;70.91;100323.97;5012781;28;20305;-75
2023/07/03 05:13:01;;;;;;;8.63;4.10;;;;;;;15.88;71.39;100306.91;5012870;28;20298;-75
2023/07/03 05:15:30;;;;;;;9.03;4.07;;;;;;;15.80;70.15;100337.13;5012882;28;20211;-75
2023/07/03 05:17:58;;;;;;;11.53;4.03;;;;;;;15.78;69.73;100349.50;5012573;28;20210;-74
2023/07/03 05:20:25;;;;;;;8.23;4.00;;;;;;;15.77;69.85;100364.41;5013240;28;20230;-74
2023/07/03 05:22:55;;;;;;;7.93;3.47;;;;;;;15.54;69.96;100377.63;5003079;28;20681;-74
2023/07/03 05:25:22;;;;;;;10.53;4.13;;;;;;;15.35;70.66;100364.38;5007923;28;20214;-74
2023/07/03 05:27:49;;;;;;;8.77;3.43;;;;;;;15.58;70.90;100345.00;5011073;28;20206;-74
2023/07/03 05:30:15;;;;;;;8.37;3.70;;;;;;;15.71;70.84;100343.59;5007600;28;20226;-75
2023/07/03 05:32:42;;;;;;;9.90;4.03;;;;;;;15.71;70.82;100346.22;5012564;28;20211;-74
2023/07/03 05:35:09;;;;;;;7.63;3.60;;;;;;;15.81;70.87;100342.31;5012635;28;20261;-74
2023/07/03 05:37:36;;;;;;;8.20;3.93;;;;;;;15.66;70.12;100356.09;5012391;28;20208;-74
2023/07/03 05:40:06;;;;;;;7.27;3.30;;;;;;;15.58;69.50;100382.72;5005525;28;20708;-75
2023/07/03 05:42:34;;;;;;;9.60;3.83;;;;;;;15.68;71.03;100357.72;5012576;28;20231;-75
2023/07/03 05:45:00;;;;;;;7.00;3.50;;;;;;;15.78;70.38;100367.91;5012253;28;20251;-75
2023/07/03 05:47:26;;;;;;;9.30;3.80;;;;;;;15.78;70.39;100371.41;5012577;28;20207;-74
2023/07/03 05:49:53;;;;;;;7.43;3.50;;;;;;;15.87;70.28;100373.63;5006968;28;20232;-75
2023/07/03 05:52:19;;;;;;;8.90;3.83;;;;;;;15.90;70.15;100375.28;5012776;28;20214;-75
2023/07/03 05:54:46;;;;;;;8.43;4.30;;;;;;;15.93;70.25;100384.84;5012108;28;20243;-75
2023/07/03 05:57:14;;;;;;;8.63;3.73;;;;;;;15.82;70.10;100386.16;5012160;28;20207;-74
2023/07/03 05:59:41;;;;;;;10.63;4.27;;;;;;;15.79;70.83;100383.63;5010347;28;20224;-74
2023/07/03 06:02:10;;;;;;;12.20;4.53;;;;;;;15.88;70.87;100377.97;5012338;28;20622;-75
2023/07/03 06:04:37;;;;;;;9.80;3.80;;;;;;;15.86;71.05;100364.03;5011943;28;20209;-75
2023/07/03 06:07:04;;;;;;;10.20;4.10;;;;;;;15.88;70.97;100359.56;5011813;28;20231;-74
2023/07/03 06:09:31;;;;;;;5.97;3.30;;;;;;;15.94;71.42;100344.44;5011804;28;20227;-74
2023/07/03 06:11:57;;;;;;;12.00;4.47;;;;;;;16.02;71.02;100334.44;5012025;28;20195;-74
2023/07/03 06:14:25;;;;;;;10.30;4.07;;;;;;;16.04;70.67;100365.03;5011191;28;20224;-75
2023/07/03 06:16:53;;;;;;;10.43;3.63;;;;;;;16.08;70.41;100371.88;5011696;28;20280;-74
2023/07/03 06:19:21;;;;;;;12.27;4.20;;;;;;;16.22;70.10;100407.31;5011665;28;20233;-74
2023/07/03 06:21:48;;;;;;;8.00;3.77;;;;;;;16.20;69.45;100427.59;5011548;28;20268;-74
2023/07/03 06:24:15;;;;;;;8.27;3.67;;;;;;;16.15;68.89;100447.97;5011420;28;20669;-74
2023/07/03 06:26:43;;;;;;;7.10;3.17;;;;;;;16.24;69.36;100445.81;5011739;28;20271;-74
2023/07/03 06:29:10;;;;;;;7.73;3.57;;;;;;;16.32;68.93;100457.81;5011587;28;20269;-74
2023/07/03 06:31:38;;;;;;;13.87;3.37;;;;;;;16.31;68.89;100472.75;5011872;28;20219;-74
2023/07/03 06:34:05;;;;;;;10.97;4.00;;;;;;;16.32;68.71;100485.00;5011332;28;20227;-74
2023/07/03 06:36:34;;;;;;;13.57;4.27;;;;;;;16.40;68.92;100482.91;5011957;28;20262;-74
2023/07/03 06:39:02;;;;;;;10.10;3.47;;;;;;;16.22;68.87;100487.16;5011707;28;20220;-74
2023/07/03 06:41:30;;;;;;;15.63;3.90;;;;;;;16.19;68.75;100489.06;5011944;28;20212;-74
2023/07/03 06:43:57;;;;;;;8.53;3.13;;;;;;;16.34;68.86;100493.69;5011474;28;20212;-74
2023/07/03 06:46:24;;;;;;;9.87;3.63;;;;;;;16.48;68.99;100485.22;5011571;28;20278;-74
2023/07/03 06:48:54;;;;;;;7.73;3.77;;;;;;;16.51;68.62;100500.91;5011128;28;20675;-74
2023/07/03 06:51:20;;;;;;;8.00;3.70;;;;;;;16.53;68.40;100496.44;5011637;28;20676;-74
2023/07/03 06:53:47;;;;;;;7.10;3.37;;;;;;;16.71;69.02;100493.91;5010837;28;20237;-75
2023/07/03 06:56:13;;;;;;;9.37;3.50;;;;;;;16.68;68.48;100513.34;5011515;28;20207;-75
2023/07/03 06:58:39;;;;;;;9.73;4.40;;;;;;;16.77;69.02;100489.22;5011133;28;20203;-76
2023/07/03 07:01:07;;;;;;;6.73;3.50;;;;;;;16.83;68.64;100506.59;5011589;28;20358;-75
2023/07/03 07:03:33;;;;;;;10.87;4.47;;;;;;;16.84;68.89;100509.13;5011205;28;20210;-75
2023/07/03 07:06:08;;;;;;;9.80;4.87;;;;;;;16.98;69.93;100474.25;5011442;28;20207;-75
2023/07/03 07:08:34;;;;;;;7.83;3.40;;;;;;;17.18;69.33;100451.38;5011947;28;20203;-75
2023/07/03 07:11:01;;;;;;;9.97;3.83;;;;;;;17.31;69.63;100457.81;5006395;28;20315;-75
2023/07/03 07:13:27;;;;;;;9.27;3.33;;;;;;;17.17;68.16;100518.28;4991351;28;20215;-75
2023/07/03 07:15:53;;;;;;;10.13;4.17;;;;;;;17.22;67.96;100524.19;5010904;28;20207;-75
2023/07/03 07:18:20;;;;;;;7.73;3.57;;;;;;;17.21;68.32;100527.75;5010815;28;20207;-77
2023/07/03 07:20:46;;;;;;;11.67;3.70;;;;;;;17.17;69.58;100499.81;4993102;28;20228;-77
2023/07/03 07:23:14;;;;;;;6.17;3.03;;;;;;;17.19;68.82;100497.97;5006025;28;20208;-76
2023/07/03 07:25:41;;;;;;;8.20;3.43;;;;;;;17.17;68.36;100499.81;5006414;28;20297;-75
2023/07/03 07:28:07;;;;;;;7.97;3.53;;;;;;;17.22;68.18;100514.50;5016327;28;20213;-74
2023/07/03 07:30:37;;;;;;;8.90;3.63;;;;;;;17.20;67.63;100540.06;5023614;28;20259;-75
2023/07/03 07:33:04;;;;;;;8.80;3.97;;;;;;;17.20;67.66;100539.22;4995781;28;20212;-75
2023/07/03 07:35:35;;;;;;;7.80;3.87;;;;;;;16.89;68.70;100545.88;5010916;28;20226;-74
2023/07/03 07:38:02;;;;;;;10.27;4.68;;;;;;;16.43;70.34;100474.88;5014501;28;20444;-74
2023/07/03 07:40:29;;;;;;;11.10;3.93;;;;;;;16.37;72.08;100411.91;5014668;28;20719;-73
2023/07/03 07:42:56;;;;;;;10.77;4.37;;;;;;;16.52;72.85;100349.78;5005810;28;20623;-73
2023/07/03 07:45:22;;;;;;;9.43;4.03;;;;;;;16.64;71.05;100364.16;5014953;28;20274;-73
2023/07/03 07:47:48;;;;;;;11.07;4.30;;;;;;;16.74;71.19;100381.28;5012961;28;20666;-73
2023/07/03 07:50:15;;;;;;;9.50;3.83;;;;;;;16.82;70.16;100405.53;5014704;28;20307;-74
2023/07/03 07:52:41;;;;;;;8.10;3.83;;;;;;;17.00;69.31;100437.28;5014514;28;20209;-72
2023/07/03 07:55:08;;;;;;;6.47;3.50;;;;;;;17.18;70.68;100443.47;5014226;28;20265;-74
2023/07/03 07:57:36;;;;;;;11.50;3.90;;;;;;;17.29;70.14;100449.13;5014182;28;20668;-74
2023/07/03 08:00:03;;;;;;;10.50;4.10;;;;;;;17.03;69.98;100451.19;5014909;28;20233;-73
2023/07/03 08:02:29;;;;;;;12.30;4.13;;;;;;;16.87;70.93;100418.53;5014628;28;20209;-74
2023/07/03 08:04:57;;;;;;;9.17;3.60;;;;;;;17.16;71.77;100408.41;5006955;28;20222;-74
2023/07/03 08:07:23;;;;;;;9.13;3.97;;;;;;;17.15;69.81;100423.38;5014378;28;20655;-74
2023/07/03 08:09:49;;;;;;;10.67;4.30;;;;;;;17.21;69.11;100470.56;5013848;28;20600;-73
2023/07/03 08:12:16;;;;;;;13.63;4.23;;;;;;;17.09;69.08;100483.50;5014438;28;20252;-73
2023/07/03 08:14:43;;;;;;;10.33;4.30;;;;;;;17.06;70.78;100444.91;5014372;28;20263;-73
2023/07/03 08:17:10;;;;;;;11.00;3.63;;;;;;;17.15;70.20;100441.00;5014104;28;20216;-74
2023/07/03 08:19:36;;;;;;;8.07;3.73;;;;;;;17.14;69.82;100463.84;5014052;28;20710;-74
2023/07/03 08:22:03;;;;;;;11.10;4.20;;;;;;;17.15;70.19;100464.75;5013991;28;20213;-74
2023/07/03 08:24:29;;;;;;;10.27;4.10;;;;;;;16.78;72.01;100447.91;5013722;28;20209;-74
2023/07/03 08:26:55;;;;;;;14.67;4.67;;;;;;;16.66;76.57;100305.19;5006111;28;20240;-74
2023/07/03 08:29:22;;;;;;;16.80;5.13;;;;;;;16.68;77.43;100236.59;5014044;28;20273;-73
2023/07/03 08:31:49;;;;;;;8.50;5.23;;;;;;;16.12;80.67;100156.66;5022314;28;20207;-73
2023/07/03 08:34:16;;;;;;;9.27;4.50;;;;;;;16.20;82.74;100065.00;5013732;28;20709;-74
2023/07/03 08:36:42;;;;;;;11.83;6.10;;;;;;;15.75;83.97;100044.34;5014253;28;20211;-73
2023/07/03 08:39:09;;;;;;;11.00;5.90;;;;;;;15.69;85.36;99998.91;5006717;28;20298;-74
2023/07/03 08:41:43;;;;;;;12.47;5.73;;;;;;;15.66;87.45;99985.94;4994332;28;20206;-74
2023/07/03 08:44:11;;;;;;;11.40;6.40;;;;;;;15.70;87.03;99978.75;4994285;28;20201;-74
2023/07/03 08:46:38;;;;;;;16.57;5.60;;;;;;;15.63;88.08;99985.22;4994101;28;20208;-74
2023/07/03 08:49:07;;;;;;;17.17;6.27;;;;;;;15.49;88.93;99967.44;4994043;28;20255;-74
2023/07/03 08:51:37;;;;;;;12.10;6.13;;;;;;;15.54;87.90;99961.97;4993780;28;20218;-74
2023/07/03 08:54:09;;;;;;;13.77;6.83;;;;;;;15.80;87.32;100006.34;5000892;28;20212;-75
2023/07/03 08:56:37;;;;;;;9.53;5.30;;;;;;;15.88;86.80;100042.84;5002575;28;20208;-74
2023/07/03 08:59:06;;;;;;;12.37;5.93;;;;;;;16.02;85.74;100077.25;5013456;28;20211;-74
2023/07/03 09:01:39;;;;;;;10.73;6.23;;;;;;;16.27;85.52;100086.59;5013189;28;20209;-74
2023/07/03 09:04:24;;;;;;;14.70;5.93;;;;;;;16.54;82.96;100155.56;5013210;28;20204;-74
2023/07/03 09:06:55;;;;;;;11.97;5.50;;;;;;;16.76;82.82;100172.97;5013220;28;20216;-74
2023/07/03 09:09:29;;;;;;;11.87;5.10;;;;;;;16.91;78.71;100267.16;5013250;28;20227;-74
2023/07/03 09:12:02;;;;;;;16.60;5.43;;;;;;;17.02;77.92;100316.75;5017710;28;20217;-74
2023/07/03 09:14:35;;;;;;;14.27;5.47;;;;;;;17.31;78.13;100328.53;4993237;28;20230;-74
2023/07/03 09:17:02;;;;;;;14.87;5.17;;;;;;;17.46;75.76;100375.28;5005937;28;20617;-74
2023/07/03 09:19:30;;;;;;;9.57;4.73;;;;;;;17.53;73.01;100468.22;5012930;28;20255;-74
2023/07/03 09:22:02;;;;;;;10.20;4.67;;;;;;;17.58;71.58;100540.13;5004935;28;20206;-74
2023/07/03 09:24:36;;;;;;;14.07;6.03;;;;;;;17.73;73.07;100535.91;5005053;28;20699;-74
2023/07/03 09:27:10;;;;;;;8.50;4.50;;;;;;;17.88;73.90;100513.25;5005243;28;20219;-74
2023/07/03 09:29:38;;;;;;;8.23;3.93;;;;;;;17.91;71.04;100559.75;5012908;28;20232;-74
2023/07/03 09:32:05;;;;;;;10.00;4.20;;;;;;;18.04;68.86;100646.28;5013148;28;20209;-74
2023/07/03 09:35:08;;;;;;;12.73;4.27;;;;;;;18.16;66.04;100742.59;5012666;28;20276;-74
2023/07/03 09:37:37;;;;;;;8.90;4.00;;;;;;;18.14;64.50;100807.88;5012454;28;20209;-74
2023/07/03 09:40:08;;;;;;;12.57;4.10;;;;;;;18.09;62.92;100814.28;5012734;28;20225;-74
2023/07/03 09:42:35;;;;;;;16.97;4.20;;;;;;;18.14;64.98;100846.66;5012632;28;20726;-74
2023/07/03 09:45:02;;;;;;;8.10;3.60;;;;;;;18.25;62.35;100869.03;5016490;28;20277;-74
2023/07/03 09:47:30;;;;;;;8.30;3.07;;;;;;;18.25;59.33;100923.66;5008877;28;20256;-74
2023/07/03 09:50:04;;;;;;;6.90;3.47;;;;;;;18.37;62.75;100948.69;5012117;28;20233;-74
2023/07/03 09:52:32;;;;;;;9.33;3.20;;;;;;;18.62;59.36;100948.50;5012291;28;20213;-74
2023/07/03 09:55:02;;;;;;;9.20;3.43;;;;;;;18.75;60.09;100983.19;5000777;28;20230;-74
2023/07/03 09:57:29;;;;;;;6.53;3.23;;;;;;;18.46;60.10;101007.31;4992917;28;20225;-74
2023/07/03 10:00:09;;;;;;;8.47;3.60;;;;;;;18.22;61.17;100974.03;5004486;28;20236;-74
2023/07/03 10:02:35;;;;;;;9.53;3.50;;;;;;;18.34;62.48;100899.47;5012019;28;20236;-74
2023/07/03 10:05:02;;;;;;;7.77;3.67;;;;;;;18.36;62.67;100876.47;5012346;28;20208;-74
2023/07/03 10:07:40;;;;;;;8.03;3.10;;;;;;;18.22;60.70;100876.25;5011985;28;20721;-74
2023/07/03 10:10:10;;;;;;;7.43;3.60;;;;;;;18.29;62.43;100876.81;5011901;28;20249;-74
2023/07/03 10:12:40;;;;;;;6.07;3.17;;;;;;;17.93;61.74;100903.91;5012114;28;20297;-74
2023/07/03 10:15:11;;;;;;;6.73;4.00;;;;;;;17.94;61.84;100881.84;5017068;28;20217;-74
2023/07/03 10:17:42;;;;;;;9.33;3.83;;;;;;;17.80;62.89;100854.22;4997331;28;20207;-76
2023/07/03 10:20:14;;;;;;;8.77;3.30;;;;;;;17.71;61.09;100870.44;5005825;28;20311;-76
2023/07/03 10:22:43;;;;;;;8.73;3.67;;;;;;;17.55;60.84;100904.53;5013294;28;20624;-76
2023/07/03 10:25:17;;;;;;;7.20;3.43;;;;;;;17.48;62.28;100897.75;5012883;28;20202;-75
2023/07/03 10:27:45;;;;;;;7.37;3.07;;;;;;;17.28;63.46;100861.63;5010280;28;20219;-76
2023/07/03 10:30:15;;;;;;;9.53;3.63;;;;;;;17.26;62.94;100861.72;5011900;28;20233;-75
2023/07/03 10:32:46;;;;;;;8.30;2.73;;;;;;;17.31;62.74;100835.13;5011932;28;20304;-76
2023/07/03 10:35:20;;;;;;;7.57;3.20;;;;;;;17.40;61.61;100853.25;5011606;28;20283;-76
2023/07/03 10:37:53;;;;;;;7.10;3.00;;;;;;;17.55;61.53;100885.19;5002757;28;20212;-75
2023/07/03 10:40:27;;;;;;;7.27;2.90;;;;;;;17.49;61.03;100919.75;5011330;28;20230;-75
2023/07/03 10:42:57;;;;;;;6.23;3.17;;;;;;;17.65;60.79;100919.06;5011585;28;20208;-76
2023/07/03 10:45:25;;;;;;;10.93;3.63;;;;;;;17.88;61.99;100901.47;5011793;28;20205;-75
2023/07/03 10:47:56;;;;;;;7.33;2.83;;;;;;;17.94;61.27;100911.78;5011678;28;20268;-77
2023/07/03 10:50:29;;;;;;;8.83;3.07;;;;;;;17.85;61.56;100893.66;5011753;28;20230;-77
2023/07/03 10:53:06;;;;;;;9.07;3.33;;;;;;;17.93;62.59;100898.63;5005217;28;20206;-75
2023/07/03 10:55:39;;;;;;;8.07;3.17;;;;;;;18.15;62.32;100872.13;5011157;28;20318;-74
2023/07/03 10:58:12;;;;;;;8.40;3.43;;;;;;;18.04;61.76;100884.03;5012242;28;20256;-74
2023/07/03 11:00:46;;;;;;;7.90;3.37;;;;;;;18.13;64.21;100821.16;5014829;28;20284;-74
2023/07/03 11:03:20;;;;;;;6.60;3.63;;;;;;;18.45;62.97;100830.25;5015923;28;20206;-74
2023/07/03 11:05:55;;;;;;;9.30;4.20;;;;;;;18.59;62.75;100832.28;5014110;28;20213;-75
2023/07/03 11:08:43;;;;;;;6.40;3.73;;;;;;;18.67;60.05;100896.25;5015561;28;20583;-74
2023/07/03 11:11:21;;;;;;;6.07;3.47;;;;;;;18.76;59.82;100926.72;5015098;28;20237;-75
2023/07/03 11:13:57;;;;;;;7.80;4.13;;;;;;;19.00;61.41;100920.31;5015457;28;20298;-75
2023/07/03 11:16:28;;;;;;;12.63;3.20;;;;;;;19.25;60.07;100904.16;5015144;28;20286;-75
2023/07/03 11:19:12;;;;;;;6.20;3.90;;;;;;;19.28;58.60;100963.19;5015452;28;20218;-75
2023/07/03 11:21:47;;;;;;;10.67;4.23;;;;;;;19.37;59.94;100870.09;5015067;28;20214;-75
2023/07/03 11:24:20;;;;;;;5.07;2.50;;;;;;;19.57;57.24;100903.53;5013588;28;20684;-75
2023/07/03 11:26:51;;;;;;;6.00;3.27;;;;;;;19.82;56.68;100959.72;4997006;28;20238;-75
2023/07/03 11:29:18;;;;;;;7.10;3.03;;;;;;;19.57;56.50;101025.38;5009042;28;20637;-75